sensor_id;sensor_type;location;lat;lon;timestamp;P1;durP1;ratioP1;P2;durP2;ratioP2
71303;SDS011;59091;47.446;19.148;2023-10-19T00:00:33;16.80;;;10.18;;
71303;SDS011;59091;47.446;19.148;2023-10-19T00:02:59;17.65;;;10.80;;
71303;SDS011;59091;47.446;19.148;2023-10-19T00:05:28;16.58;;;11.13;;
71303;SDS011;59091;47.446;19.148;2023-10-19T00:07:55;17.35;;;10.32;;
71303;SDS011;59091;47.446;19.148;2023-10-19T00:10:22;22.42;;;11.38;;
71303;SDS011;59091;47.446;19.148;2023-10-19T00:12:50;19.25;;;11.45;;
71303;SDS011;59091;47.446;19.148;2023-10-19T00:15:24;17.08;;;11.20;;
71303;SDS011;59091;47.446;19.148;2023-10-19T00:17:53;16.73;;;11.20;;
71303;SDS011;59091;47.446;19.148;2023-10-19T00:20:19;21.75;;;11.27;;
71303;SDS011;59091;47.446;19.148;2023-10-19T00:23:01;18.25;;;11.38;;
71303;SDS011;59091;47.446;19.148;2023-10-19T00:25:30;22.83;;;11.30;;
71303;SDS011;59091;47.446;19.148;2023-10-19T00:27:57;22.52;;;10.93;;
71303;SDS011;59091;47.446;19.148;2023-10-19T00:30:25;18.92;;;11.38;;
71303;SDS011;59091;47.446;19.148;2023-10-19T00:32:56;17.00;;;11.32;;
71303;SDS011;59091;47.446;19.148;2023-10-19T00:35:22;16.33;;;10.80;;
71303;SDS011;59091;47.446;19.148;2023-10-19T00:38:00;19.55;;;11.55;;
71303;SDS011;59091;47.446;19.148;2023-10-19T00:40:49;18.10;;;11.05;;
71303;SDS011;59091;47.446;19.148;2023-10-19T00:43:25;20.13;;;11.55;;
71303;SDS011;59091;47.446;19.148;2023-10-19T00:46:03;22.45;;;11.35;;
71303;SDS011;59091;47.446;19.148;2023-10-19T00:48:41;18.45;;;11.18;;
71303;SDS011;59091;47.446;19.148;2023-10-19T00:51:10;19.83;;;11.40;;
71303;SDS011;59091;47.446;19.148;2023-10-19T00:53:51;18.52;;;12.82;;
71303;SDS011;59091;47.446;19.148;2023-10-19T00:56:19;21.05;;;12.80;;
71303;SDS011;59091;47.446;19.148;2023-10-19T00:58:45;23.60;;;12.55;;
71303;SDS011;59091;47.446;19.148;2023-10-19T01:01:19;17.42;;;11.90;;
71303;SDS011;59091;47.446;19.148;2023-10-19T01:03:53;19.73;;;11.77;;
71303;SDS011;59091;47.446;19.148;2023-10-19T01:06:24;18.88;;;12.48;;
71303;SDS011;59091;47.446;19.148;2023-10-19T01:08:50;20.83;;;12.70;;
71303;SDS011;59091;47.446;19.148;2023-10-19T01:11:17;19.48;;;11.95;;
71303;SDS011;59091;47.446;19.148;2023-10-19T01:13:46;24.75;;;12.57;;
71303;SDS011;59091;47.446;19.148;2023-10-19T01:16:16;17.98;;;12.68;;
71303;SDS011;59091;47.446;19.148;2023-10-19T01:18:51;18.73;;;12.07;;
71303;SDS011;59091;47.446;19.148;2023-10-19T01:21:23;21.55;;;13.68;;
71303;SDS011;59091;47.446;19.148;2023-10-19T01:24:01;24.65;;;13.32;;
71303;SDS011;59091;47.446;19.148;2023-10-19T01:26:31;19.75;;;13.35;;
71303;SDS011;59091;47.446;19.148;2023-10-19T01:28:57;17.58;;;12.05;;
71303;SDS011;59091;47.446;19.148;2023-10-19T01:31:40;22.08;;;13.98;;
71303;SDS011;59091;47.446;19.148;2023-10-19T01:34:21;21.85;;;13.90;;
71303;SDS011;59091;47.446;19.148;2023-10-19T01:36:47;24.45;;;14.25;;
71303;SDS011;59091;47.446;19.148;2023-10-19T01:39:15;25.42;;;14.73;;
71303;SDS011;59091;47.446;19.148;2023-10-19T01:41:43;22.17;;;14.02;;
71303;SDS011;59091;47.446;19.148;2023-10-19T01:44:10;20.73;;;14.02;;
71303;SDS011;59091;47.446;19.148;2023-10-19T01:46:38;24.05;;;14.93;;
71303;SDS011;59091;47.446;19.148;2023-10-19T01:49:04;21.35;;;14.10;;
71303;SDS011;59091;47.446;19.148;2023-10-19T01:51:32;27.15;;;15.45;;
71303;SDS011;59091;47.446;19.148;2023-10-19T01:54:01;26.88;;;15.90;;
71303;SDS011;59091;47.446;19.148;2023-10-19T01:56:27;24.17;;;15.90;;
71303;SDS011;59091;47.446;19.148;2023-10-19T01:58:53;23.10;;;16.00;;
71303;SDS011;59091;47.446;19.148;2023-10-19T02:01:22;26.13;;;16.65;;
71303;SDS011;59091;47.446;19.148;2023-10-19T02:03:51;28.52;;;16.67;;
71303;SDS011;59091;47.446;19.148;2023-10-19T02:06:23;26.40;;;17.10;;
71303;SDS011;59091;47.446;19.148;2023-10-19T02:08:55;32.25;;;17.45;;
71303;SDS011;59091;47.446;19.148;2023-10-19T02:11:25;27.13;;;15.70;;
71303;SDS011;59091;47.446;19.148;2023-10-19T02:13:52;28.88;;;17.48;;
71303;SDS011;59091;47.446;19.148;2023-10-19T02:16:19;28.98;;;17.77;;
71303;SDS011;59091;47.446;19.148;2023-10-19T02:18:49;26.70;;;18.15;;
71303;SDS011;59091;47.446;19.148;2023-10-19T02:21:15;28.42;;;18.50;;
71303;SDS011;59091;47.446;19.148;2023-10-19T02:23:47;27.23;;;18.00;;
71303;SDS011;59091;47.446;19.148;2023-10-19T02:26:18;25.52;;;18.60;;
71303;SDS011;59091;47.446;19.148;2023-10-19T02:28:48;31.42;;;17.67;;
71303;SDS011;59091;47.446;19.148;2023-10-19T02:31:17;34.92;;;19.60;;
71303;SDS011;59091;47.446;19.148;2023-10-19T02:33:46;26.73;;;18.60;;
71303;SDS011;59091;47.446;19.148;2023-10-19T02:36:17;28.30;;;18.77;;
71303;SDS011;59091;47.446;19.148;2023-10-19T02:38:44;31.83;;;20.02;;
71303;SDS011;59091;47.446;19.148;2023-10-19T02:41:17;30.52;;;20.23;;
71303;SDS011;59091;47.446;19.148;2023-10-19T02:43:43;32.33;;;20.40;;
71303;SDS011;59091;47.446;19.148;2023-10-19T02:46:15;31.05;;;19.90;;
71303;SDS011;59091;47.446;19.148;2023-10-19T02:48:42;31.27;;;20.67;;
71303;SDS011;59091;47.446;19.148;2023-10-19T02:51:14;33.20;;;20.92;;
71303;SDS011;59091;47.446;19.148;2023-10-19T02:53:40;36.83;;;22.05;;
71303;SDS011;59091;47.446;19.148;2023-10-19T02:56:13;34.40;;;22.38;;
71303;SDS011;59091;47.446;19.148;2023-10-19T02:58:42;31.50;;;21.15;;
71303;SDS011;59091;47.446;19.148;2023-10-19T03:01:12;40.97;;;22.63;;
71303;SDS011;59091;47.446;19.148;2023-10-19T03:03:39;35.67;;;21.17;;
71303;SDS011;59091;47.446;19.148;2023-10-19T03:06:08;36.47;;;21.33;;
71303;SDS011;59091;47.446;19.148;2023-10-19T03:08:34;30.55;;;20.42;;
71303;SDS011;59091;47.446;19.148;2023-10-19T03:11:00;31.35;;;20.90;;
71303;SDS011;59091;47.446;19.148;2023-10-19T03:13:29;33.38;;;21.98;;
71303;SDS011;59091;47.446;19.148;2023-10-19T03:15:57;33.83;;;21.17;;
71303;SDS011;59091;47.446;19.148;2023-10-19T03:18:23;32.38;;;21.30;;
71303;SDS011;59091;47.446;19.148;2023-10-19T03:20:50;38.63;;;21.52;;
71303;SDS011;59091;47.446;19.148;2023-10-19T03:23:16;33.20;;;21.25;;
71303;SDS011;59091;47.446;19.148;2023-10-19T03:25:42;29.85;;;21.05;;
71303;SDS011;59091;47.446;19.148;2023-10-19T03:30:51;29.75;;;19.65;;
71303;SDS011;59091;47.446;19.148;2023-10-19T03:33:20;36.03;;;21.45;;
71303;SDS011;59091;47.446;19.148;2023-10-19T03:35:45;30.92;;;20.55;;
71303;SDS011;59091;47.446;19.148;2023-10-19T03:38:11;44.20;;;21.80;;
71303;SDS011;59091;47.446;19.148;2023-10-19T03:40:41;34.92;;;21.08;;
71303;SDS011;59091;47.446;19.148;2023-10-19T03:43:11;36.83;;;20.98;;
71303;SDS011;59091;47.446;19.148;2023-10-19T03:45:43;35.63;;;22.25;;
71303;SDS011;59091;47.446;19.148;2023-10-19T03:48:17;35.15;;;22.23;;
71303;SDS011;59091;47.446;19.148;2023-10-19T03:50:51;37.75;;;22.60;;
71303;SDS011;59091;47.446;19.148;2023-10-19T03:53:20;32.67;;;22.33;;
71303;SDS011;59091;47.446;19.148;2023-10-19T03:55:47;36.17;;;22.98;;
71303;SDS011;59091;47.446;19.148;2023-10-19T03:58:13;35.75;;;22.38;;
71303;SDS011;59091;47.446;19.148;2023-10-19T04:00:38;35.63;;;22.67;;
71303;SDS011;59091;47.446;19.148;2023-10-19T04:03:03;37.92;;;22.50;;
71303;SDS011;59091;47.446;19.148;2023-10-19T04:05:30;36.63;;;22.35;;
71303;SDS011;59091;47.446;19.148;2023-10-19T04:07:56;40.13;;;22.30;;
71303;SDS011;59091;47.446;19.148;2023-10-19T04:10:25;34.40;;;21.85;;
71303;SDS011;59091;47.446;19.148;2023-10-19T04:13:00;29.58;;;21.02;;
71303;SDS011;59091;47.446;19.148;2023-10-19T04:15:26;37.90;;;22.45;;
71303;SDS011;59091;47.446;19.148;2023-10-19T04:17:54;35.53;;;21.85;;
71303;SDS011;59091;47.446;19.148;2023-10-19T04:20:23;38.58;;;21.88;;
71303;SDS011;59091;47.446;19.148;2023-10-19T04:23:06;39.53;;;21.73;;
71303;SDS011;59091;47.446;19.148;2023-10-19T04:25:35;34.50;;;21.67;;
71303;SDS011;59091;47.446;19.148;2023-10-19T04:28:01;38.20;;;22.38;;
71303;SDS011;59091;47.446;19.148;2023-10-19T04:30:28;34.00;;;22.13;;
71303;SDS011;59091;47.446;19.148;2023-10-19T04:32:54;33.50;;;21.17;;
71303;SDS011;59091;47.446;19.148;2023-10-19T04:35:23;38.22;;;21.83;;
71303;SDS011;59091;47.446;19.148;2023-10-19T04:37:49;40.67;;;21.42;;
71303;SDS011;59091;47.446;19.148;2023-10-19T04:40:16;42.05;;;22.85;;
71303;SDS011;59091;47.446;19.148;2023-10-19T04:42:45;38.55;;;22.75;;
71303;SDS011;59091;47.446;19.148;2023-10-19T04:45:12;40.90;;;23.35;;
71303;SDS011;59091;47.446;19.148;2023-10-19T04:47:38;37.47;;;24.05;;
71303;SDS011;59091;47.446;19.148;2023-10-19T04:50:07;37.20;;;24.27;;
71303;SDS011;59091;47.446;19.148;2023-10-19T04:52:35;39.97;;;24.85;;
71303;SDS011;59091;47.446;19.148;2023-10-19T04:55:01;45.45;;;25.25;;
71303;SDS011;59091;47.446;19.148;2023-10-19T04:57:27;39.38;;;23.40;;
71303;SDS011;59091;47.446;19.148;2023-10-19T04:59:52;37.08;;;23.73;;
71303;SDS011;59091;47.446;19.148;2023-10-19T05:02:18;39.58;;;24.55;;
71303;SDS011;59091;47.446;19.148;2023-10-19T05:04:44;41.13;;;24.98;;
71303;SDS011;59091;47.446;19.148;2023-10-19T05:07:10;42.08;;;25.52;;
71303;SDS011;59091;47.446;19.148;2023-10-19T05:09:41;40.90;;;24.80;;
71303;SDS011;59091;47.446;19.148;2023-10-19T05:12:08;40.03;;;23.85;;
71303;SDS011;59091;47.446;19.148;2023-10-19T05:14:37;38.08;;;23.17;;
71303;SDS011;59091;47.446;19.148;2023-10-19T05:17:03;40.45;;;23.48;;
71303;SDS011;59091;47.446;19.148;2023-10-19T05:19:33;37.83;;;23.23;;
71303;SDS011;59091;47.446;19.148;2023-10-19T05:21:59;38.20;;;23.00;;
71303;SDS011;59091;47.446;19.148;2023-10-19T05:24:26;36.25;;;22.60;;
71303;SDS011;59091;47.446;19.148;2023-10-19T05:26:52;36.88;;;22.58;;
71303;SDS011;59091;47.446;19.148;2023-10-19T05:29:18;36.35;;;23.17;;
71303;SDS011;59091;47.446;19.148;2023-10-19T05:31:44;36.33;;;23.33;;
71303;SDS011;59091;47.446;19.148;2023-10-19T05:34:10;36.53;;;23.38;;
71303;SDS011;59091;47.446;19.148;2023-10-19T05:36:35;36.67;;;23.92;;
71303;SDS011;59091;47.446;19.148;2023-10-19T05:39:01;37.17;;;23.25;;
71303;SDS011;59091;47.446;19.148;2023-10-19T05:41:28;41.08;;;23.80;;
71303;SDS011;59091;47.446;19.148;2023-10-19T05:43:56;40.38;;;24.77;;
71303;SDS011;59091;47.446;19.148;2023-10-19T05:46:22;39.75;;;23.42;;
71303;SDS011;59091;47.446;19.148;2023-10-19T05:48:50;37.15;;;22.65;;
71303;SDS011;59091;47.446;19.148;2023-10-19T05:51:16;40.55;;;23.63;;
71303;SDS011;59091;47.446;19.148;2023-10-19T05:53:42;38.42;;;23.85;;
71303;SDS011;59091;47.446;19.148;2023-10-19T05:56:09;37.00;;;23.20;;
71303;SDS011;59091;47.446;19.148;2023-10-19T05:58:35;36.28;;;23.58;;
71303;SDS011;59091;47.446;19.148;2023-10-19T06:01:01;42.80;;;24.73;;
71303;SDS011;59091;47.446;19.148;2023-10-19T06:03:26;38.63;;;24.50;;
71303;SDS011;59091;47.446;19.148;2023-10-19T06:05:52;40.67;;;24.60;;
71303;SDS011;59091;47.446;19.148;2023-10-19T06:08:21;38.75;;;24.83;;
71303;SDS011;59091;47.446;19.148;2023-10-19T06:10:50;40.55;;;23.70;;
71303;SDS011;59091;47.446;19.148;2023-10-19T06:13:17;42.60;;;24.33;;
71303;SDS011;59091;47.446;19.148;2023-10-19T06:15:42;36.92;;;24.05;;
71303;SDS011;59091;47.446;19.148;2023-10-19T06:18:08;37.85;;;23.65;;
71303;SDS011;59091;47.446;19.148;2023-10-19T06:20:35;37.90;;;23.27;;
71303;SDS011;59091;47.446;19.148;2023-10-19T06:23:01;38.00;;;22.75;;
71303;SDS011;59091;47.446;19.148;2023-10-19T06:25:30;38.85;;;22.92;;
71303;SDS011;59091;47.446;19.148;2023-10-19T06:27:56;42.95;;;23.98;;
71303;SDS011;59091;47.446;19.148;2023-10-19T06:30:22;39.67;;;23.38;;
71303;SDS011;59091;47.446;19.148;2023-10-19T06:32:58;41.65;;;23.10;;
71303;SDS011;59091;47.446;19.148;2023-10-19T06:35:25;37.20;;;21.95;;
71303;SDS011;59091;47.446;19.148;2023-10-19T06:37:52;34.95;;;23.02;;
71303;SDS011;59091;47.446;19.148;2023-10-19T06:40:20;36.00;;;22.13;;
71303;SDS011;59091;47.446;19.148;2023-10-19T06:42:47;34.10;;;22.90;;
71303;SDS011;59091;47.446;19.148;2023-10-19T06:45:13;40.33;;;25.05;;
71303;SDS011;59091;47.446;19.148;2023-10-19T06:47:44;38.88;;;23.77;;
71303;SDS011;59091;47.446;19.148;2023-10-19T06:50:11;37.20;;;24.50;;
71303;SDS011;59091;47.446;19.148;2023-10-19T06:52:38;35.33;;;23.52;;
71303;SDS011;59091;47.446;19.148;2023-10-19T06:55:04;38.22;;;23.25;;
71303;SDS011;59091;47.446;19.148;2023-10-19T06:57:32;34.63;;;23.20;;
71303;SDS011;59091;47.446;19.148;2023-10-19T06:59:58;36.78;;;23.65;;
71303;SDS011;59091;47.446;19.148;2023-10-19T07:02:24;31.17;;;22.25;;
71303;SDS011;59091;47.446;19.148;2023-10-19T07:04:51;29.85;;;21.02;;
71303;SDS011;59091;47.446;19.148;2023-10-19T07:07:17;35.50;;;21.50;;
71303;SDS011;59091;47.446;19.148;2023-10-19T07:09:43;35.05;;;21.35;;
71303;SDS011;59091;47.446;19.148;2023-10-19T07:12:08;33.15;;;21.70;;
71303;SDS011;59091;47.446;19.148;2023-10-19T07:14:34;33.28;;;20.38;;
71303;SDS011;59091;47.446;19.148;2023-10-19T07:16:59;29.45;;;20.15;;
71303;SDS011;59091;47.446;19.148;2023-10-19T07:19:25;28.90;;;19.58;;
71303;SDS011;59091;47.446;19.148;2023-10-19T07:21:51;28.35;;;19.65;;
71303;SDS011;59091;47.446;19.148;2023-10-19T07:24:23;26.35;;;18.23;;
71303;SDS011;59091;47.446;19.148;2023-10-19T07:26:49;27.90;;;18.85;;
71303;SDS011;59091;47.446;19.148;2023-10-19T07:29:19;29.70;;;18.52;;
71303;SDS011;59091;47.446;19.148;2023-10-19T07:31:45;28.55;;;18.75;;
71303;SDS011;59091;47.446;19.148;2023-10-19T07:34:10;28.63;;;19.08;;
71303;SDS011;59091;47.446;19.148;2023-10-19T07:36:40;29.23;;;19.35;;
71303;SDS011;59091;47.446;19.148;2023-10-19T07:39:07;29.00;;;19.27;;
71303;SDS011;59091;47.446;19.148;2023-10-19T07:41:39;29.45;;;18.77;;
71303;SDS011;59091;47.446;19.148;2023-10-19T07:44:05;32.97;;;19.48;;
71303;SDS011;59091;47.446;19.148;2023-10-19T07:46:30;30.25;;;19.55;;
71303;SDS011;59091;47.446;19.148;2023-10-19T07:48:56;29.70;;;19.38;;
71303;SDS011;59091;47.446;19.148;2023-10-19T07:51:24;29.42;;;18.73;;
71303;SDS011;59091;47.446;19.148;2023-10-19T07:53:50;28.48;;;19.83;;
71303;SDS011;59091;47.446;19.148;2023-10-19T07:56:16;25.63;;;18.55;;
71303;SDS011;59091;47.446;19.148;2023-10-19T07:58:42;26.75;;;18.58;;
71303;SDS011;59091;47.446;19.148;2023-10-19T08:01:07;30.90;;;18.52;;
71303;SDS011;59091;47.446;19.148;2023-10-19T08:03:33;28.23;;;19.10;;
71303;SDS011;59091;47.446;19.148;2023-10-19T08:06:00;27.27;;;18.77;;
71303;SDS011;59091;47.446;19.148;2023-10-19T08:08:25;28.30;;;18.23;;
71303;SDS011;59091;47.446;19.148;2023-10-19T08:10:58;29.20;;;18.70;;
71303;SDS011;59091;47.446;19.148;2023-10-19T08:13:23;26.15;;;17.70;;
71303;SDS011;59091;47.446;19.148;2023-10-19T08:15:51;29.02;;;19.08;;
71303;SDS011;59091;47.446;19.148;2023-10-19T08:18:16;27.00;;;18.08;;
71303;SDS011;59091;47.446;19.148;2023-10-19T08:20:43;28.63;;;18.63;;
71303;SDS011;59091;47.446;19.148;2023-10-19T08:23:10;28.48;;;17.88;;
71303;SDS011;59091;47.446;19.148;2023-10-19T08:25:38;26.75;;;17.95;;
71303;SDS011;59091;47.446;19.148;2023-10-19T08:28:04;30.63;;;19.17;;
71303;SDS011;59091;47.446;19.148;2023-10-19T08:30:31;30.17;;;18.17;;
71303;SDS011;59091;47.446;19.148;2023-10-19T08:32:59;27.27;;;17.20;;
71303;SDS011;59091;47.446;19.148;2023-10-19T08:35:24;30.83;;;18.85;;
71303;SDS011;59091;47.446;19.148;2023-10-19T08:37:50;26.30;;;17.52;;
71303;SDS011;59091;47.446;19.148;2023-10-19T08:40:20;26.15;;;17.77;;
71303;SDS011;59091;47.446;19.148;2023-10-19T08:42:46;27.13;;;17.40;;
71303;SDS011;59091;47.446;19.148;2023-10-19T08:45:13;29.25;;;17.83;;
71303;SDS011;59091;47.446;19.148;2023-10-19T08:47:54;27.08;;;17.83;;
71303;SDS011;59091;47.446;19.148;2023-10-19T08:50:22;30.55;;;18.77;;
71303;SDS011;59091;47.446;19.148;2023-10-19T08:52:50;28.77;;;18.38;;
71303;SDS011;59091;47.446;19.148;2023-10-19T08:55:19;25.67;;;18.00;;
71303;SDS011;59091;47.446;19.148;2023-10-19T08:57:44;25.88;;;18.45;;
71303;SDS011;59091;47.446;19.148;2023-10-19T09:00:14;26.80;;;19.05;;
71303;SDS011;59091;47.446;19.148;2023-10-19T09:02:42;26.60;;;17.80;;
71303;SDS011;59091;47.446;19.148;2023-10-19T09:05:08;28.17;;;18.27;;
71303;SDS011;59091;47.446;19.148;2023-10-19T09:07:34;36.47;;;18.50;;
71303;SDS011;59091;47.446;19.148;2023-10-19T09:10:00;28.63;;;17.70;;
71303;SDS011;59091;47.446;19.148;2023-10-19T09:12:26;29.08;;;18.13;;
71303;SDS011;59091;47.446;19.148;2023-10-19T09:14:52;26.90;;;17.77;;
71303;SDS011;59091;47.446;19.148;2023-10-19T09:17:27;21.50;;;15.18;;
71303;SDS011;59091;47.446;19.148;2023-10-19T09:19:54;24.42;;;16.42;;
71303;SDS011;59091;47.446;19.148;2023-10-19T09:22:22;28.95;;;17.38;;
71303;SDS011;59091;47.446;19.148;2023-10-19T09:24:48;23.45;;;15.75;;
71303;SDS011;59091;47.446;19.148;2023-10-19T09:27:17;20.80;;;14.93;;
71303;SDS011;59091;47.446;19.148;2023-10-19T09:29:43;24.73;;;16.38;;
71303;SDS011;59091;47.446;19.148;2023-10-19T09:32:08;24.52;;;14.98;;
71303;SDS011;59091;47.446;19.148;2023-10-19T09:34:35;25.00;;;16.27;;
71303;SDS011;59091;47.446;19.148;2023-10-19T09:37:01;24.55;;;16.60;;
71303;SDS011;59091;47.446;19.148;2023-10-19T09:39:29;27.05;;;16.70;;
71303;SDS011;59091;47.446;19.148;2023-10-19T09:42:07;27.40;;;16.92;;
71303;SDS011;59091;47.446;19.148;2023-10-19T09:44:41;23.13;;;16.23;;
71303;SDS011;59091;47.446;19.148;2023-10-19T09:47:34;26.50;;;16.10;;
71303;SDS011;59091;47.446;19.148;2023-10-19T09:50:00;26.45;;;17.10;;
71303;SDS011;59091;47.446;19.148;2023-10-19T09:52:30;27.05;;;17.13;;
71303;SDS011;59091;47.446;19.148;2023-10-19T09:57:55;26.30;;;17.25;;
71303;SDS011;59091;47.446;19.148;2023-10-19T10:00:23;29.05;;;18.25;;
71303;SDS011;59091;47.446;19.148;2023-10-19T10:02:50;26.33;;;17.77;;
71303;SDS011;59091;47.446;19.148;2023-10-19T10:10:47;25.55;;;18.25;;
71303;SDS011;59091;47.446;19.148;2023-10-19T10:15:55;23.88;;;18.92;;
71303;SDS011;59091;47.446;19.148;2023-10-19T10:18:25;29.48;;;18.65;;
71303;SDS011;59091;47.446;19.148;2023-10-19T10:26:12;23.08;;;17.00;;
71303;SDS011;59091;47.446;19.148;2023-10-19T10:28:39;24.42;;;18.33;;
71303;SDS011;59091;47.446;19.148;2023-10-19T10:31:09;23.42;;;17.48;;
71303;SDS011;59091;47.446;19.148;2023-10-19T10:33:53;22.05;;;17.33;;
71303;SDS011;59091;47.446;19.148;2023-10-19T10:36:22;21.73;;;16.77;;
71303;SDS011;59091;47.446;19.148;2023-10-19T10:38:48;24.38;;;17.73;;
71303;SDS011;59091;47.446;19.148;2023-10-19T10:41:24;25.55;;;18.55;;
71303;SDS011;59091;47.446;19.148;2023-10-19T10:43:54;19.70;;;14.15;;
71303;SDS011;59091;47.446;19.148;2023-10-19T10:46:21;21.73;;;17.05;;
71303;SDS011;59091;47.446;19.148;2023-10-19T10:48:48;21.33;;;14.32;;
71303;SDS011;59091;47.446;19.148;2023-10-19T10:51:14;19.77;;;15.55;;
71303;SDS011;59091;47.446;19.148;2023-10-19T10:53:49;19.83;;;15.55;;
71303;SDS011;59091;47.446;19.148;2023-10-19T10:56:15;22.63;;;15.75;;
71303;SDS011;59091;47.446;19.148;2023-10-19T10:58:42;23.05;;;15.93;;
71303;SDS011;59091;47.446;19.148;2023-10-19T11:01:08;23.15;;;16.58;;
71303;SDS011;59091;47.446;19.148;2023-10-19T11:03:35;23.83;;;15.85;;
71303;SDS011;59091;47.446;19.148;2023-10-19T11:06:04;27.20;;;16.55;;
71303;SDS011;59091;47.446;19.148;2023-10-19T11:08:33;20.15;;;15.18;;
71303;SDS011;59091;47.446;19.148;2023-10-19T11:11:06;18.75;;;14.65;;
71303;SDS011;59091;47.446;19.148;2023-10-19T11:13:35;20.48;;;14.88;;
71303;SDS011;59091;47.446;19.148;2023-10-19T11:16:03;26.25;;;15.52;;
71303;SDS011;59091;47.446;19.148;2023-10-19T11:19:03;23.70;;;14.85;;
71303;SDS011;59091;47.446;19.148;2023-10-19T11:21:22;24.42;;;15.05;;
71303;SDS011;59091;47.446;19.148;2023-10-19T11:23:48;20.05;;;15.68;;
71303;SDS011;59091;47.446;19.148;2023-10-19T11:26:19;24.35;;;16.33;;
71303;SDS011;59091;47.446;19.148;2023-10-19T11:28:47;23.20;;;15.30;;
71303;SDS011;59091;47.446;19.148;2023-10-19T11:31:24;18.58;;;14.07;;
71303;SDS011;59091;47.446;19.148;2023-10-19T11:33:51;24.38;;;16.45;;
71303;SDS011;59091;47.446;19.148;2023-10-19T11:36:18;18.48;;;14.48;;
71303;SDS011;59091;47.446;19.148;2023-10-19T11:38:45;23.40;;;16.75;;
71303;SDS011;59091;47.446;19.148;2023-10-19T11:41:13;24.88;;;18.00;;
71303;SDS011;59091;47.446;19.148;2023-10-19T11:43:39;25.17;;;18.27;;
71303;SDS011;59091;47.446;19.148;2023-10-19T11:46:07;26.38;;;17.83;;
71303;SDS011;59091;47.446;19.148;2023-10-19T11:48:33;23.33;;;17.98;;
71303;SDS011;59091;47.446;19.148;2023-10-19T11:51:00;23.20;;;17.63;;
71303;SDS011;59091;47.446;19.148;2023-10-19T11:53:29;26.45;;;18.80;;
71303;SDS011;59091;47.446;19.148;2023-10-19T11:55:58;16.25;;;12.82;;
71303;SDS011;59091;47.446;19.148;2023-10-19T11:58:25;24.05;;;17.60;;
71303;SDS011;59091;47.446;19.148;2023-10-19T12:00:51;26.80;;;18.08;;
71303;SDS011;59091;47.446;19.148;2023-10-19T12:03:17;22.10;;;17.20;;
71303;SDS011;59091;47.446;19.148;2023-10-19T12:05:44;26.83;;;18.63;;
71303;SDS011;59091;47.446;19.148;2023-10-19T12:08:09;26.70;;;19.40;;
71303;SDS011;59091;47.446;19.148;2023-10-19T12:10:34;22.20;;;18.13;;
71303;SDS011;59091;47.446;19.148;2023-10-19T12:13:04;24.45;;;18.88;;
71303;SDS011;59091;47.446;19.148;2023-10-19T12:15:33;24.08;;;18.52;;
71303;SDS011;59091;47.446;19.148;2023-10-19T12:17:59;23.42;;;17.80;;
71303;SDS011;59091;47.446;19.148;2023-10-19T12:20:25;27.52;;;19.00;;
71303;SDS011;59091;47.446;19.148;2023-10-19T12:22:51;25.70;;;18.13;;
71303;SDS011;59091;47.446;19.148;2023-10-19T12:25:19;23.92;;;16.73;;
71303;SDS011;59091;47.446;19.148;2023-10-19T12:27:46;19.63;;;14.27;;
71303;SDS011;59091;47.446;19.148;2023-10-19T12:30:12;19.17;;;13.95;;
71303;SDS011;59091;47.446;19.148;2023-10-19T12:32:50;26.60;;;15.43;;
71303;SDS011;59091;47.446;19.148;2023-10-19T12:35:16;26.75;;;16.70;;
71303;SDS011;59091;47.446;19.148;2023-10-19T12:37:44;21.95;;;16.42;;
71303;SDS011;59091;47.446;19.148;2023-10-19T12:40:17;21.63;;;16.17;;
71303;SDS011;59091;47.446;19.148;2023-10-19T12:42:52;23.67;;;17.58;;
71303;SDS011;59091;47.446;19.148;2023-10-19T12:45:24;18.63;;;16.02;;
71303;SDS011;59091;47.446;19.148;2023-10-19T12:47:50;21.42;;;16.70;;
71303;SDS011;59091;47.446;19.148;2023-10-19T12:50:19;23.67;;;16.95;;
71303;SDS011;59091;47.446;19.148;2023-10-19T12:52:48;22.33;;;16.80;;
71303;SDS011;59091;47.446;19.148;2023-10-19T12:55:15;22.65;;;16.85;;
71303;SDS011;59091;47.446;19.148;2023-10-19T12:57:41;21.35;;;15.85;;
71303;SDS011;59091;47.446;19.148;2023-10-19T13:00:07;23.83;;;16.63;;
71303;SDS011;59091;47.446;19.148;2023-10-19T13:02:54;27.67;;;17.20;;
71303;SDS011;59091;47.446;19.148;2023-10-19T13:05:31;25.98;;;16.92;;
71303;SDS011;59091;47.446;19.148;2023-10-19T13:07:57;23.67;;;16.05;;
71303;SDS011;59091;47.446;19.148;2023-10-19T13:10:27;21.20;;;16.52;;
71303;SDS011;59091;47.446;19.148;2023-10-19T13:12:55;22.83;;;17.20;;
71303;SDS011;59091;47.446;19.148;2023-10-19T13:15:20;22.05;;;16.67;;
71303;SDS011;59091;47.446;19.148;2023-10-19T13:17:47;27.08;;;16.65;;
71303;SDS011;59091;47.446;19.148;2023-10-19T13:20:13;23.15;;;16.92;;
71303;SDS011;59091;47.446;19.148;2023-10-19T13:22:43;22.25;;;15.60;;
71303;SDS011;59091;47.446;19.148;2023-10-19T13:25:09;20.70;;;15.70;;
71303;SDS011;59091;47.446;19.148;2023-10-19T13:27:38;18.63;;;15.52;;
71303;SDS011;59091;47.446;19.148;2023-10-19T13:30:07;23.08;;;16.75;;
71303;SDS011;59091;47.446;19.148;2023-10-19T13:32:35;22.67;;;15.27;;
71303;SDS011;59091;47.446;19.148;2023-10-19T13:35:01;18.05;;;14.70;;
71303;SDS011;59091;47.446;19.148;2023-10-19T13:37:27;22.25;;;15.60;;
71303;SDS011;59091;47.446;19.148;2023-10-19T13:39:53;24.52;;;15.00;;
71303;SDS011;59091;47.446;19.148;2023-10-19T13:42:19;25.83;;;16.15;;
71303;SDS011;59091;47.446;19.148;2023-10-19T13:44:46;21.42;;;15.15;;
71303;SDS011;59091;47.446;19.148;2023-10-19T13:47:12;32.00;;;20.63;;
71303;SDS011;59091;47.446;19.148;2023-10-19T13:49:38;33.67;;;21.08;;
71303;SDS011;59091;47.446;19.148;2023-10-19T13:52:03;32.15;;;20.80;;
71303;SDS011;59091;47.446;19.148;2023-10-19T13:54:33;36.03;;;22.88;;
71303;SDS011;59091;47.446;19.148;2023-10-19T13:56:59;33.55;;;21.08;;
71303;SDS011;59091;47.446;19.148;2023-10-19T13:59:27;31.95;;;21.38;;
71303;SDS011;59091;47.446;19.148;2023-10-19T14:01:54;27.92;;;21.25;;
71303;SDS011;59091;47.446;19.148;2023-10-19T14:04:19;34.42;;;21.55;;
71303;SDS011;59091;47.446;19.148;2023-10-19T14:06:45;36.22;;;22.30;;
71303;SDS011;59091;47.446;19.148;2023-10-19T14:09:14;36.38;;;22.85;;
71303;SDS011;59091;47.446;19.148;2023-10-19T14:11:40;38.22;;;23.33;;
71303;SDS011;59091;47.446;19.148;2023-10-19T14:14:06;34.53;;;22.63;;
71303;SDS011;59091;47.446;19.148;2023-10-19T14:16:32;39.58;;;24.67;;
71303;SDS011;59091;47.446;19.148;2023-10-19T14:18:57;36.78;;;23.33;;
71303;SDS011;59091;47.446;19.148;2023-10-19T14:21:23;37.35;;;23.95;;
71303;SDS011;59091;47.446;19.148;2023-10-19T14:23:51;38.80;;;23.92;;
71303;SDS011;59091;47.446;19.148;2023-10-19T14:26:18;31.98;;;23.40;;
71303;SDS011;59091;47.446;19.148;2023-10-19T14:28:44;33.88;;;23.77;;
71303;SDS011;59091;47.446;19.148;2023-10-19T14:31:09;38.20;;;23.17;;
71303;SDS011;59091;47.446;19.148;2023-10-19T14:33:36;38.15;;;24.70;;